sensor_id;sensor_type;location;lat;lon;timestamp;P1;durP1;ratioP1;P2;durP2;ratioP2
5121;SDS011;2563;52.242;7.956;2022-12-18T00:01:01;41.90;;;12.47;;
5121;SDS011;2563;52.242;7.956;2022-12-18T00:03:32;34.37;;;12.30;;
5121;SDS011;2563;52.242;7.956;2022-12-18T00:06:00;36.20;;;12.00;;
5121;SDS011;2563;52.242;7.956;2022-12-18T00:08:26;55.50;;;14.40;;
5121;SDS011;2563;52.242;7.956;2022-12-18T00:10:52;42.77;;;13.60;;
5121;SDS011;2563;52.242;7.956;2022-12-18T00:13:18;39.83;;;12.33;;
5121;SDS011;2563;52.242;7.956;2022-12-18T00:15:43;51.50;;;15.50;;
5121;SDS011;2563;52.242;7.956;2022-12-18T00:18:09;36.47;;;11.87;;
5121;SDS011;2563;52.242;7.956;2022-12-18T00:20:35;35.60;;;12.73;;
5121;SDS011;2563;52.242;7.956;2022-12-18T00:23:05;39.60;;;12.93;;
5121;SDS011;2563;52.242;7.956;2022-12-18T00:25:35;30.83;;;10.30;;
5121;SDS011;2563;52.242;7.956;2022-12-18T00:28:04;33.73;;;11.23;;
5121;SDS011;2563;52.242;7.956;2022-12-18T00:30:29;27.07;;;10.07;;
5121;SDS011;2563;52.242;7.956;2022-12-18T00:32:55;34.73;;;10.70;;
5121;SDS011;2563;52.242;7.956;2022-12-18T00:35:22;37.90;;;12.87;;
5121;SDS011;2563;52.242;7.956;2022-12-18T00:37:47;33.20;;;12.73;;
5121;SDS011;2563;52.242;7.956;2022-12-18T00:40:13;29.13;;;10.60;;
5121;SDS011;2563;52.242;7.956;2022-12-18T00:42:38;30.17;;;10.13;;
5121;SDS011;2563;52.242;7.956;2022-12-18T00:45:26;38.03;;;10.50;;
5121;SDS011;2563;52.242;7.956;2022-12-18T00:47:53;27.30;;;9.83;;
5121;SDS011;2563;52.242;7.956;2022-12-18T00:50:20;33.03;;;11.23;;
5121;SDS011;2563;52.242;7.956;2022-12-18T00:52:46;28.80;;;9.37;;
5121;SDS011;2563;52.242;7.956;2022-12-18T00:55:12;27.80;;;9.77;;
5121;SDS011;2563;52.242;7.956;2022-12-18T00:57:38;22.70;;;9.37;;
5121;SDS011;2563;52.242;7.956;2022-12-18T01:00:03;29.37;;;9.80;;
5121;SDS011;2563;52.242;7.956;2022-12-18T01:02:30;30.47;;;10.47;;
5121;SDS011;2563;52.242;7.956;2022-12-18T01:04:56;26.40;;;9.10;;
5121;SDS011;2563;52.242;7.956;2022-12-18T01:07:22;25.67;;;9.63;;
5121;SDS011;2563;52.242;7.956;2022-12-18T01:09:47;27.40;;;9.60;;
5121;SDS011;2563;52.242;7.956;2022-12-18T01:12:12;29.17;;;9.00;;
5121;SDS011;2563;52.242;7.956;2022-12-18T01:14:38;35.80;;;8.67;;
5121;SDS011;2563;52.242;7.956;2022-12-18T01:17:03;33.93;;;10.20;;
5121;SDS011;2563;52.242;7.956;2022-12-18T01:19:29;31.00;;;10.80;;
5121;SDS011;2563;52.242;7.956;2022-12-18T01:21:55;24.63;;;9.30;;
5121;SDS011;2563;52.242;7.956;2022-12-18T01:24:20;35.60;;;7.80;;
5121;SDS011;2563;52.242;7.956;2022-12-18T01:26:45;28.20;;;9.37;;
5121;SDS011;2563;52.242;7.956;2022-12-18T01:29:11;28.97;;;9.13;;
5121;SDS011;2563;52.242;7.956;2022-12-18T01:31:36;25.10;;;9.60;;
5121;SDS011;2563;52.242;7.956;2022-12-18T01:34:02;25.10;;;9.20;;
5121;SDS011;2563;52.242;7.956;2022-12-18T01:36:30;27.27;;;8.80;;
5121;SDS011;2563;52.242;7.956;2022-12-18T01:38:58;21.67;;;8.13;;
5121;SDS011;2563;52.242;7.956;2022-12-18T01:41:26;28.60;;;8.53;;
5121;SDS011;2563;52.242;7.956;2022-12-18T01:47:25;26.77;;;9.60;;
5121;SDS011;2563;52.242;7.956;2022-12-18T01:49:51;31.33;;;9.97;;
5121;SDS011;2563;52.242;7.956;2022-12-18T01:52:17;24.27;;;9.13;;
5121;SDS011;2563;52.242;7.956;2022-12-18T01:54:44;36.90;;;9.33;;
5121;SDS011;2563;52.242;7.956;2022-12-18T01:57:10;34.30;;;9.10;;
5121;SDS011;2563;52.242;7.956;2022-12-18T01:59:36;27.50;;;8.63;;
5121;SDS011;2563;52.242;7.956;2022-12-18T02:02:03;16.13;;;6.80;;
5121;SDS011;2563;52.242;7.956;2022-12-18T02:04:29;24.60;;;8.17;;
5121;SDS011;2563;52.242;7.956;2022-12-18T02:06:56;30.43;;;9.80;;
5121;SDS011;2563;52.242;7.956;2022-12-18T02:09:34;22.67;;;7.47;;
5121;SDS011;2563;52.242;7.956;2022-12-18T02:12:19;23.27;;;8.27;;
5121;SDS011;2563;52.242;7.956;2022-12-18T02:27:55;27.67;;;8.40;;
5121;SDS011;2563;52.242;7.956;2022-12-18T02:30:24;17.60;;;6.90;;
5121;SDS011;2563;52.242;7.956;2022-12-18T02:32:54;25.83;;;7.80;;
5121;SDS011;2563;52.242;7.956;2022-12-18T02:35:24;24.83;;;8.40;;
5121;SDS011;2563;52.242;7.956;2022-12-18T02:37:52;22.40;;;8.20;;
5121;SDS011;2563;52.242;7.956;2022-12-18T02:40:18;19.97;;;8.00;;
5121;SDS011;2563;52.242;7.956;2022-12-18T02:42:45;30.10;;;9.10;;
5121;SDS011;2563;52.242;7.956;2022-12-18T02:45:10;22.00;;;7.30;;
5121;SDS011;2563;52.242;7.956;2022-12-18T02:47:37;30.47;;;7.50;;
5121;SDS011;2563;52.242;7.956;2022-12-18T02:58:16;20.80;;;7.40;;
5121;SDS011;2563;52.242;7.956;2022-12-18T03:00:53;16.73;;;6.13;;
5121;SDS011;2563;52.242;7.956;2022-12-18T03:03:36;24.27;;;7.43;;
5121;SDS011;2563;52.242;7.956;2022-12-18T03:09:06;21.93;;;7.47;;
5121;SDS011;2563;52.242;7.956;2022-12-18T03:11:36;22.73;;;7.57;;
5121;SDS011;2563;52.242;7.956;2022-12-18T03:14:38;22.90;;;7.90;;
5121;SDS011;2563;52.242;7.956;2022-12-18T03:17:05;17.77;;;6.17;;
5121;SDS011;2563;52.242;7.956;2022-12-18T03:19:38;25.57;;;7.67;;
5121;SDS011;2563;52.242;7.956;2022-12-18T03:22:07;26.73;;;9.00;;
5121;SDS011;2563;52.242;7.956;2022-12-18T03:24:33;25.97;;;8.73;;
5121;SDS011;2563;52.242;7.956;2022-12-18T03:27:04;20.87;;;7.90;;
5121;SDS011;2563;52.242;7.956;2022-12-18T03:29:33;23.17;;;6.27;;
5121;SDS011;2563;52.242;7.956;2022-12-18T03:32:15;18.90;;;7.07;;
5121;SDS011;2563;52.242;7.956;2022-12-18T03:34:56;20.63;;;7.13;;
5121;SDS011;2563;52.242;7.956;2022-12-18T03:37:25;19.93;;;6.50;;
5121;SDS011;2563;52.242;7.956;2022-12-18T03:39:51;18.33;;;6.63;;
5121;SDS011;2563;52.242;7.956;2022-12-18T03:42:25;16.20;;;6.20;;
5121;SDS011;2563;52.242;7.956;2022-12-18T03:45:00;15.70;;;6.13;;
5121;SDS011;2563;52.242;7.956;2022-12-18T03:50:43;15.37;;;5.47;;
5121;SDS011;2563;52.242;7.956;2022-12-18T03:55:44;13.43;;;5.17;;
5121;SDS011;2563;52.242;7.956;2022-12-18T03:58:11;17.63;;;6.53;;
5121;SDS011;2563;52.242;7.956;2022-12-18T04:00:43;18.23;;;6.83;;
5121;SDS011;2563;52.242;7.956;2022-12-18T04:03:09;18.83;;;6.20;;
5121;SDS011;2563;52.242;7.956;2022-12-18T04:05:35;16.83;;;6.17;;
5121;SDS011;2563;52.242;7.956;2022-12-18T04:08:02;22.57;;;7.13;;
5121;SDS011;2563;52.242;7.956;2022-12-18T04:10:28;21.93;;;6.27;;
5121;SDS011;2563;52.242;7.956;2022-12-18T04:12:57;17.60;;;6.30;;
5121;SDS011;2563;52.242;7.956;2022-12-18T04:15:23;21.57;;;6.70;;
5121;SDS011;2563;52.242;7.956;2022-12-18T04:17:49;26.40;;;6.47;;
5121;SDS011;2563;52.242;7.956;2022-12-18T04:20:15;18.90;;;6.80;;
5121;SDS011;2563;52.242;7.956;2022-12-18T04:22:41;22.53;;;7.37;;
5121;SDS011;2563;52.242;7.956;2022-12-18T04:25:07;18.03;;;5.87;;
5121;SDS011;2563;52.242;7.956;2022-12-18T04:27:36;17.27;;;6.07;;
5121;SDS011;2563;52.242;7.956;2022-12-18T04:30:01;20.20;;;7.57;;
5121;SDS011;2563;52.242;7.956;2022-12-18T04:32:27;18.60;;;7.40;;
5121;SDS011;2563;52.242;7.956;2022-12-18T04:34:52;18.50;;;5.90;;
5121;SDS011;2563;52.242;7.956;2022-12-18T04:37:17;22.33;;;6.30;;
5121;SDS011;2563;52.242;7.956;2022-12-18T04:39:43;16.20;;;6.13;;
5121;SDS011;2563;52.242;7.956;2022-12-18T04:42:08;15.03;;;5.93;;
5121;SDS011;2563;52.242;7.956;2022-12-18T04:44:33;15.70;;;6.00;;
5121;SDS011;2563;52.242;7.956;2022-12-18T04:46:59;14.80;;;4.97;;
5121;SDS011;2563;52.242;7.956;2022-12-18T04:49:24;22.37;;;7.27;;
5121;SDS011;2563;52.242;7.956;2022-12-18T04:51:50;16.53;;;4.77;;
5121;SDS011;2563;52.242;7.956;2022-12-18T04:54:16;22.23;;;6.43;;
5121;SDS011;2563;52.242;7.956;2022-12-18T04:56:44;21.40;;;6.93;;
5121;SDS011;2563;52.242;7.956;2022-12-18T04:59:10;21.67;;;7.37;;
5121;SDS011;2563;52.242;7.956;2022-12-18T05:01:35;14.90;;;5.93;;
5121;SDS011;2563;52.242;7.956;2022-12-18T05:04:01;16.70;;;5.87;;
5121;SDS011;2563;52.242;7.956;2022-12-18T05:06:27;17.90;;;7.00;;
5121;SDS011;2563;52.242;7.956;2022-12-18T05:08:52;17.17;;;6.80;;
5121;SDS011;2563;52.242;7.956;2022-12-18T05:11:17;15.87;;;5.73;;
5121;SDS011;2563;52.242;7.956;2022-12-18T05:13:43;20.73;;;6.83;;
5121;SDS011;2563;52.242;7.956;2022-12-18T05:16:09;20.47;;;6.37;;
5121;SDS011;2563;52.242;7.956;2022-12-18T05:18:35;18.27;;;6.00;;
5121;SDS011;2563;52.242;7.956;2022-12-18T05:21:00;23.63;;;8.00;;
5121;SDS011;2563;52.242;7.956;2022-12-18T05:23:26;25.93;;;6.50;;
5121;SDS011;2563;52.242;7.956;2022-12-18T05:25:52;20.60;;;7.30;;
5121;SDS011;2563;52.242;7.956;2022-12-18T05:28:19;19.13;;;6.77;;
5121;SDS011;2563;52.242;7.956;2022-12-18T05:30:52;16.00;;;6.40;;
5121;SDS011;2563;52.242;7.956;2022-12-18T05:33:20;19.50;;;6.77;;
5121;SDS011;2563;52.242;7.956;2022-12-18T05:35:54;20.20;;;7.70;;
5121;SDS011;2563;52.242;7.956;2022-12-18T05:38:21;26.67;;;7.67;;
5121;SDS011;2563;52.242;7.956;2022-12-18T05:40:48;32.40;;;7.60;;
5121;SDS011;2563;52.242;7.956;2022-12-18T05:43:14;22.67;;;7.87;;
5121;SDS011;2563;52.242;7.956;2022-12-18T05:45:40;13.93;;;6.13;;
5121;SDS011;2563;52.242;7.956;2022-12-18T05:48:06;27.43;;;8.17;;
5121;SDS011;2563;52.242;7.956;2022-12-18T05:50:35;27.33;;;10.07;;
5121;SDS011;2563;52.242;7.956;2022-12-18T05:53:04;25.80;;;8.20;;
5121;SDS011;2563;52.242;7.956;2022-12-18T05:55:33;25.87;;;8.07;;
5121;SDS011;2563;52.242;7.956;2022-12-18T05:58:00;38.23;;;9.47;;
5121;SDS011;2563;52.242;7.956;2022-12-18T06:00:26;18.80;;;7.27;;
5121;SDS011;2563;52.242;7.956;2022-12-18T06:02:51;29.70;;;8.87;;
5121;SDS011;2563;52.242;7.956;2022-12-18T06:05:16;21.30;;;7.33;;
5121;SDS011;2563;52.242;7.956;2022-12-18T06:07:42;31.67;;;9.53;;
5121;SDS011;2563;52.242;7.956;2022-12-18T06:10:07;34.50;;;9.47;;
5121;SDS011;2563;52.242;7.956;2022-12-18T06:12:33;28.63;;;8.60;;
5121;SDS011;2563;52.242;7.956;2022-12-18T06:14:58;23.97;;;7.43;;
5121;SDS011;2563;52.242;7.956;2022-12-18T06:17:27;21.00;;;8.03;;
5121;SDS011;2563;52.242;7.956;2022-12-18T06:19:54;20.20;;;8.07;;
5121;SDS011;2563;52.242;7.956;2022-12-18T06:22:20;33.10;;;9.17;;
5121;SDS011;2563;52.242;7.956;2022-12-18T06:24:45;21.37;;;8.47;;
5121;SDS011;2563;52.242;7.956;2022-12-18T06:27:10;27.43;;;8.20;;
5121;SDS011;2563;52.242;7.956;2022-12-18T06:29:36;20.67;;;7.73;;
5121;SDS011;2563;52.242;7.956;2022-12-18T06:32:01;21.73;;;7.70;;
5121;SDS011;2563;52.242;7.956;2022-12-18T06:34:26;21.03;;;8.30;;
5121;SDS011;2563;52.242;7.956;2022-12-18T06:36:52;33.13;;;8.37;;
5121;SDS011;2563;52.242;7.956;2022-12-18T06:39:17;23.23;;;8.23;;
5121;SDS011;2563;52.242;7.956;2022-12-18T06:41:42;21.90;;;7.13;;
5121;SDS011;2563;52.242;7.956;2022-12-18T06:44:08;18.37;;;7.07;;
5121;SDS011;2563;52.242;7.956;2022-12-18T06:46:33;19.73;;;6.60;;
5121;SDS011;2563;52.242;7.956;2022-12-18T06:48:58;20.33;;;7.00;;
5121;SDS011;2563;52.242;7.956;2022-12-18T06:51:24;15.17;;;6.67;;
5121;SDS011;2563;52.242;7.956;2022-12-18T06:53:49;17.03;;;5.87;;
5121;SDS011;2563;52.242;7.956;2022-12-18T06:56:15;14.90;;;5.73;;
5121;SDS011;2563;52.242;7.956;2022-12-18T06:58:40;20.53;;;7.17;;
5121;SDS011;2563;52.242;7.956;2022-12-18T07:01:07;17.03;;;6.00;;
5121;SDS011;2563;52.242;7.956;2022-12-18T07:03:35;19.67;;;6.23;;
5121;SDS011;2563;52.242;7.956;2022-12-18T07:06:02;15.73;;;5.97;;
5121;SDS011;2563;52.242;7.956;2022-12-18T07:08:28;21.87;;;6.53;;
5121;SDS011;2563;52.242;7.956;2022-12-18T07:10:55;25.40;;;6.63;;
5121;SDS011;2563;52.242;7.956;2022-12-18T07:13:20;22.83;;;6.70;;
5121;SDS011;2563;52.242;7.956;2022-12-18T07:15:45;24.20;;;7.67;;
5121;SDS011;2563;52.242;7.956;2022-12-18T07:18:11;21.97;;;6.60;;
5121;SDS011;2563;52.242;7.956;2022-12-18T07:20:36;20.17;;;7.00;;
5121;SDS011;2563;52.242;7.956;2022-12-18T07:23:02;17.20;;;7.53;;
5121;SDS011;2563;52.242;7.956;2022-12-18T07:25:28;20.27;;;6.73;;
5121;SDS011;2563;52.242;7.956;2022-12-18T07:27:54;18.33;;;6.83;;
5121;SDS011;2563;52.242;7.956;2022-12-18T07:30:19;23.27;;;6.73;;
5121;SDS011;2563;52.242;7.956;2022-12-18T07:32:45;22.43;;;6.23;;
5121;SDS011;2563;52.242;7.956;2022-12-18T07:35:10;23.27;;;7.37;;
5121;SDS011;2563;52.242;7.956;2022-12-18T07:37:35;15.63;;;6.30;;
5121;SDS011;2563;52.242;7.956;2022-12-18T07:40:01;19.13;;;6.57;;
5121;SDS011;2563;52.242;7.956;2022-12-18T07:42:26;17.57;;;7.07;;
5121;SDS011;2563;52.242;7.956;2022-12-18T07:45:00;26.07;;;7.63;;
5121;SDS011;2563;52.242;7.956;2022-12-18T07:47:27;18.30;;;7.57;;
5121;SDS011;2563;52.242;7.956;2022-12-18T07:49:53;19.57;;;6.60;;
5121;SDS011;2563;52.242;7.956;2022-12-18T07:52:18;20.13;;;7.17;;
5121;SDS011;2563;52.242;7.956;2022-12-18T07:54:43;20.20;;;6.30;;
5121;SDS011;2563;52.242;7.956;2022-12-18T07:57:09;20.37;;;7.47;;
5121;SDS011;2563;52.242;7.956;2022-12-18T07:59:34;16.60;;;6.43;;
5121;SDS011;2563;52.242;7.956;2022-12-18T08:02:00;22.43;;;7.00;;
5121;SDS011;2563;52.242;7.956;2022-12-18T08:04:25;14.60;;;5.60;;
5121;SDS011;2563;52.242;7.956;2022-12-18T08:06:51;15.00;;;5.80;;
5121;SDS011;2563;52.242;7.956;2022-12-18T08:09:16;21.80;;;7.17;;
5121;SDS011;2563;52.242;7.956;2022-12-18T08:11:41;16.53;;;5.10;;
5121;SDS011;2563;52.242;7.956;2022-12-18T08:14:07;18.27;;;6.30;;
5121;SDS011;2563;52.242;7.956;2022-12-18T08:16:32;19.33;;;6.90;;
5121;SDS011;2563;52.242;7.956;2022-12-18T08:18:58;25.03;;;8.10;;
5121;SDS011;2563;52.242;7.956;2022-12-18T08:21:25;20.20;;;6.83;;
5121;SDS011;2563;52.242;7.956;2022-12-18T08:23:53;15.27;;;6.10;;
5121;SDS011;2563;52.242;7.956;2022-12-18T08:26:19;22.57;;;7.30;;
5121;SDS011;2563;52.242;7.956;2022-12-18T08:28:45;24.03;;;6.90;;
5121;SDS011;2563;52.242;7.956;2022-12-18T08:31:10;26.17;;;7.80;;
5121;SDS011;2563;52.242;7.956;2022-12-18T08:33:36;26.67;;;8.20;;
5121;SDS011;2563;52.242;7.956;2022-12-18T08:36:04;20.93;;;7.90;;
5121;SDS011;2563;52.242;7.956;2022-12-18T08:38:33;21.53;;;8.63;;
5121;SDS011;2563;52.242;7.956;2022-12-18T08:41:04;27.47;;;8.03;;
5121;SDS011;2563;52.242;7.956;2022-12-18T08:43:31;26.67;;;8.20;;
5121;SDS011;2563;52.242;7.956;2022-12-18T08:46:16;22.40;;;8.40;;
5121;SDS011;2563;52.242;7.956;2022-12-18T08:48:42;30.50;;;9.60;;
5121;SDS011;2563;52.242;7.956;2022-12-18T08:51:08;18.63;;;8.20;;
5121;SDS011;2563;52.242;7.956;2022-12-18T08:53:37;24.40;;;7.30;;
5121;SDS011;2563;52.242;7.956;2022-12-18T08:56:03;22.43;;;8.50;;
5121;SDS011;2563;52.242;7.956;2022-12-18T08:58:29;21.60;;;8.13;;
5121;SDS011;2563;52.242;7.956;2022-12-18T09:01:04;28.53;;;9.80;;
5121;SDS011;2563;52.242;7.956;2022-12-18T09:03:31;27.33;;;8.90;;
5121;SDS011;2563;52.242;7.956;2022-12-18T09:05:58;25.93;;;9.07;;
5121;SDS011;2563;52.242;7.956;2022-12-18T09:08:24;25.00;;;9.17;;
5121;SDS011;2563;52.242;7.956;2022-12-18T09:10:50;29.03;;;9.40;;
5121;SDS011;2563;52.242;7.956;2022-12-18T09:13:16;20.73;;;8.20;;
5121;SDS011;2563;52.242;7.956;2022-12-18T09:15:43;26.63;;;9.17;;
5121;SDS011;2563;52.242;7.956;2022-12-18T09:18:13;25.83;;;10.00;;
5121;SDS011;2563;52.242;7.956;2022-12-18T09:20:39;21.17;;;8.70;;
5121;SDS011;2563;52.242;7.956;2022-12-18T09:23:05;23.80;;;8.60;;
5121;SDS011;2563;52.242;7.956;2022-12-18T09:25:31;27.67;;;10.60;;
5121;SDS011;2563;52.242;7.956;2022-12-18T09:27:58;21.73;;;8.70;;
5121;SDS011;2563;52.242;7.956;2022-12-18T09:30:25;19.97;;;9.20;;
5121;SDS011;2563;52.242;7.956;2022-12-18T09:32:51;28.70;;;10.00;;
5121;SDS011;2563;52.242;7.956;2022-12-18T09:35:19;21.37;;;8.63;;
5121;SDS011;2563;52.242;7.956;2022-12-18T09:37:44;29.67;;;9.80;;
5121;SDS011;2563;52.242;7.956;2022-12-18T09:40:16;23.80;;;9.10;;
5121;SDS011;2563;52.242;7.956;2022-12-18T09:42:48;30.07;;;9.67;;
5121;SDS011;2563;52.242;7.956;2022-12-18T09:45:26;32.77;;;10.63;;
5121;SDS011;2563;52.242;7.956;2022-12-18T09:47:53;23.33;;;9.80;;
5121;SDS011;2563;52.242;7.956;2022-12-18T09:50:24;27.73;;;10.03;;
5121;SDS011;2563;52.242;7.956;2022-12-18T09:52:56;28.30;;;11.10;;
5121;SDS011;2563;52.242;7.956;2022-12-18T09:58:13;26.77;;;10.10;;
5121;SDS011;2563;52.242;7.956;2022-12-18T10:00:44;23.00;;;8.93;;
5121;SDS011;2563;52.242;7.956;2022-12-18T10:03:10;25.20;;;10.40;;
5121;SDS011;2563;52.242;7.956;2022-12-18T10:08:05;28.60;;;10.90;;
5121;SDS011;2563;52.242;7.956;2022-12-18T10:10:48;27.87;;;11.13;;
5121;SDS011;2563;52.242;7.956;2022-12-18T10:13:25;23.20;;;9.60;;
5121;SDS011;2563;52.242;7.956;2022-12-18T10:18:32;27.13;;;10.30;;
5121;SDS011;2563;52.242;7.956;2022-12-18T10:21:04;31.10;;;10.77;;
5121;SDS011;2563;52.242;7.956;2022-12-18T10:23:41;23.23;;;9.80;;
5121;SDS011;2563;52.242;7.956;2022-12-18T10:26:18;28.30;;;10.37;;
5121;SDS011;2563;52.242;7.956;2022-12-18T10:28:43;26.20;;;9.77;;
5121;SDS011;2563;52.242;7.956;2022-12-18T10:31:16;30.00;;;10.17;;
5121;SDS011;2563;52.242;7.956;2022-12-18T10:33:43;26.47;;;10.47;;
5121;SDS011;2563;52.242;7.956;2022-12-18T10:36:09;31.40;;;9.90;;
5121;SDS011;2563;52.242;7.956;2022-12-18T10:38:35;28.37;;;9.23;;
5121;SDS011;2563;52.242;7.956;2022-12-18T10:41:05;27.77;;;9.33;;
5121;SDS011;2563;52.242;7.956;2022-12-18T10:43:39;32.83;;;10.93;;
5121;SDS011;2563;52.242;7.956;2022-12-18T10:48:35;22.23;;;9.90;;
5121;SDS011;2563;52.242;7.956;2022-12-18T10:51:31;24.03;;;9.40;;
5121;SDS011;2563;52.242;7.956;2022-12-18T10:54:03;29.33;;;10.00;;
5121;SDS011;2563;52.242;7.956;2022-12-18T10:56:31;27.57;;;10.40;;
5121;SDS011;2563;52.242;7.956;2022-12-18T10:59:03;23.47;;;10.13;;
5121;SDS011;2563;52.242;7.956;2022-12-18T11:04:34;21.57;;;9.77;;
5121;SDS011;2563;52.242;7.956;2022-12-18T11:07:01;21.67;;;9.33;;
5121;SDS011;2563;52.242;7.956;2022-12-18T11:11:58;23.57;;;8.60;;
5121;SDS011;2563;52.242;7.956;2022-12-18T11:14:31;30.13;;;10.60;;
5121;SDS011;2563;52.242;7.956;2022-12-18T11:16:59;24.17;;;10.30;;
5121;SDS011;2563;52.242;7.956;2022-12-18T11:22:21;24.53;;;10.63;;
5121;SDS011;2563;52.242;7.956;2022-12-18T11:25:01;29.20;;;10.77;;
5121;SDS011;2563;52.242;7.956;2022-12-18T11:27:36;23.37;;;10.30;;
5121;SDS011;2563;52.242;7.956;2022-12-18T11:30:20;29.90;;;11.00;;
5121;SDS011;2563;52.242;7.956;2022-12-18T11:32:58;28.97;;;11.20;;
5121;SDS011;2563;52.242;7.956;2022-12-18T11:38:24;26.80;;;10.53;;
5121;SDS011;2563;52.242;7.956;2022-12-18T11:43:53;32.97;;;11.60;;
5121;SDS011;2563;52.242;7.956;2022-12-18T11:46:30;30.60;;;12.77;;
5121;SDS011;2563;52.242;7.956;2022-12-18T11:49:12;32.13;;;11.50;;
5121;SDS011;2563;52.242;7.956;2022-12-18T11:54:21;26.70;;;11.33;;
5121;SDS011;2563;52.242;7.956;2022-12-18T11:57:25;32.43;;;12.40;;
5121;SDS011;2563;52.242;7.956;2022-12-18T12:24:23;30.23;;;12.90;;
5121;SDS011;2563;52.242;7.956;2022-12-18T12:26:49;29.37;;;12.20;;
5121;SDS011;2563;52.242;7.956;2022-12-18T12:39:42;24.77;;;11.00;;
5121;SDS011;2563;52.242;7.956;2022-12-18T12:42:29;35.10;;;13.43;;
5121;SDS011;2563;52.242;7.956;2022-12-18T12:45:23;33.60;;;12.83;;
5121;SDS011;2563;52.242;7.956;2022-12-18T12:47:57;36.17;;;12.30;;
5121;SDS011;2563;52.242;7.956;2022-12-18T12:50:26;32.57;;;13.47;;
5121;SDS011;2563;52.242;7.956;2022-12-18T12:52:53;32.50;;;12.30;;
5121;SDS011;2563;52.242;7.956;2022-12-18T12:55:25;29.07;;;11.80;;
5121;SDS011;2563;52.242;7.956;2022-12-18T12:58:05;26.80;;;12.07;;
5121;SDS011;2563;52.242;7.956;2022-12-18T13:00:43;32.30;;;11.90;;
5121;SDS011;2563;52.242;7.956;2022-12-18T13:03:35;30.60;;;11.97;;
5121;SDS011;2563;52.242;7.956;2022-12-18T13:06:02;29.53;;;11.07;;
5121;SDS011;2563;52.242;7.956;2022-12-18T13:08:56;27.43;;;12.20;;
5121;SDS011;2563;52.242;7.956;2022-12-18T13:11:31;27.00;;;10.50;;
5121;SDS011;2563;52.242;7.956;2022-12-18T13:17:22;27.33;;;10.10;;
5121;SDS011;2563;52.242;7.956;2022-12-18T13:19:49;22.40;;;10.60;;
5121;SDS011;2563;52.242;7.956;2022-12-18T13:22:23;28.53;;;10.23;;
5121;SDS011;2563;52.242;7.956;2022-12-18T13:24:53;24.63;;;9.80;;
5121;SDS011;2563;52.242;7.956;2022-12-18T13:38:35;20.60;;;9.33;;
5121;SDS011;2563;52.242;7.956;2022-12-18T13:41:01;22.70;;;8.03;;
5121;SDS011;2563;52.242;7.956;2022-12-18T13:51:35;15.90;;;7.00;;
5121;SDS011;2563;52.242;7.956;2022-12-18T13:56:49;18.20;;;7.30;;
5121;SDS011;2563;52.242;7.956;2022-12-18T14:01:46;16.27;;;7.67;;
5121;SDS011;2563;52.242;7.956;2022-12-18T14:04:32;18.57;;;7.90;;
5121;SDS011;2563;52.242;7.956;2022-12-18T14:07:03;17.33;;;8.10;;
5121;SDS011;2563;52.242;7.956;2022-12-18T14:09:35;26.07;;;9.63;;
5121;SDS011;2563;52.242;7.956;2022-12-18T14:12:04;22.30;;;8.33;;
5121;SDS011;2563;52.242;7.956;2022-12-18T14:14:49;25.43;;;8.63;;
5121;SDS011;2563;52.242;7.956;2022-12-18T14:17:17;23.57;;;9.10;;
5121;SDS011;2563;52.242;7.956;2022-12-18T14:19:43;23.60;;;9.70;;
5121;SDS011;2563;52.242;7.956;2022-12-18T14:22:18;22.17;;;8.33;;
5121;SDS011;2563;52.242;7.956;2022-12-18T14:24:46;21.10;;;7.57;;
5121;SDS011;2563;52.242;7.956;2022-12-18T14:27:17;20.70;;;7.77;;
5121;SDS011;2563;52.242;7.956;2022-12-18T14:29:46;16.73;;;7.10;;
5121;SDS011;2563;52.242;7.956;2022-12-18T14:32:13;16.20;;;7.47;;
5121;SDS011;2563;52.242;7.956;2022-12-18T14:37:12;20.23;;;7.60;;
5121;SDS011;2563;52.242;7.956;2022-12-18T14:39:39;14.97;;;6.87;;
5121;SDS011;2563;52.242;7.956;2022-12-18T14:42:05;16.63;;;7.13;;
5121;SDS011;2563;52.242;7.956;2022-12-18T14:44:30;19.87;;;8.27;;
5121;SDS011;2563;52.242;7.956;2022-12-18T14:46:56;18.37;;;6.93;;
5121;SDS011;2563;52.242;7.956;2022-12-18T14:49:26;14.30;;;7.00;;
5121;SDS011;2563;52.242;7.956;2022-12-18T14:51:56;16.03;;;6.53;;
5121;SDS011;2563;52.242;7.956;2022-12-18T14:54:27;19.20;;;7.10;;
5121;SDS011;2563;52.242;7.956;2022-12-18T14:57:01;14.03;;;6.37;;
5121;SDS011;2563;52.242;7.956;2022-12-18T14:59:48;14.40;;;6.37;;
5121;SDS011;2563;52.242;7.956;2022-12-18T15:02:24;14.67;;;6.70;;
5121;SDS011;2563;52.242;7.956;2022-12-18T15:05:01;14.30;;;5.73;;
5121;SDS011;2563;52.242;7.956;2022-12-18T15:07:48;13.23;;;6.10;;
5121;SDS011;2563;52.242;7.956;2022-12-18T15:18:03;19.00;;;7.67;;
5121;SDS011;2563;52.242;7.956;2022-12-18T15:20:32;18.17;;;6.80;;
5121;SDS011;2563;52.242;7.956;2022-12-18T15:23:04;18.60;;;6.93;;
5121;SDS011;2563;52.242;7.956;2022-12-18T15:25:37;16.50;;;6.03;;
5121;SDS011;2563;52.242;7.956;2022-12-18T15:28:03;19.87;;;7.70;;
5121;SDS011;2563;52.242;7.956;2022-12-18T15:30:40;15.23;;;6.33;;
5121;SDS011;2563;52.242;7.956;2022-12-18T15:33:31;18.83;;;7.20;;
5121;SDS011;2563;52.242;7.956;2022-12-18T15:36:00;16.33;;;6.13;;
5121;SDS011;2563;52.242;7.956;2022-12-18T15:38:28;13.70;;;5.50;;
5121;SDS011;2563;52.242;7.956;2022-12-18T15:40:53;16.33;;;6.57;;
5121;SDS011;2563;52.242;7.956;2022-12-18T15:43:22;17.60;;;6.30;;
5121;SDS011;2563;52.242;7.956;2022-12-18T15:46:05;18.30;;;7.00;;
5121;SDS011;2563;52.242;7.956;2022-12-18T15:51:59;22.33;;;7.77;;
5121;SDS011;2563;52.242;7.956;2022-12-18T15:54:26;16.60;;;6.93;;
5121;SDS011;2563;52.242;7.956;2022-12-18T15:57:10;21.93;;;6.80;;
5121;SDS011;2563;52.242;7.956;2022-12-18T15:59:49;13.90;;;6.03;;
5121;SDS011;2563;52.242;7.956;2022-12-18T16:02:24;15.57;;;6.73;;
5121;SDS011;2563;52.242;7.956;2022-12-18T16:04:50;15.30;;;6.10;;
5121;SDS011;2563;52.242;7.956;2022-12-18T16:07:17;13.97;;;5.73;;
5121;SDS011;2563;52.242;7.956;2022-12-18T16:09:42;13.37;;;6.30;;
5121;SDS011;2563;52.242;7.956;2022-12-18T16:12:18;18.20;;;5.33;;
5121;SDS011;2563;52.242;7.956;2022-12-18T16:14:45;15.97;;;5.60;;
5121;SDS011;2563;52.242;7.956;2022-12-18T16:17:11;15.47;;;5.83;;
5121;SDS011;2563;52.242;7.956;2022-12-18T16:19:37;14.10;;;4.80;;
5121;SDS011;2563;52.242;7.956;2022-12-18T16:22:03;13.70;;;6.30;;
5121;SDS011;2563;52.242;7.956;2022-12-18T16:24:29;15.07;;;5.80;;
5121;SDS011;2563;52.242;7.956;2022-12-18T16:26:57;16.37;;;5.77;;
5121;SDS011;2563;52.242;7.956;2022-12-18T16:29:24;13.47;;;5.40;;
5121;SDS011;2563;52.242;7.956;2022-12-18T16:31:52;12.40;;;5.50;;
5121;SDS011;2563;52.242;7.956;2022-12-18T16:34:20;16.67;;;6.70;;
5121;SDS011;2563;52.242;7.956;2022-12-18T16:36:57;12.53;;;5.27;;
5121;SDS011;2563;52.242;7.956;2022-12-18T16:39:23;12.13;;;5.30;;
5121;SDS011;2563;52.242;7.956;2022-12-18T16:41:49;15.13;;;6.10;;
5121;SDS011;2563;52.242;7.956;2022-12-18T16:44:14;14.30;;;5.17;;
5121;SDS011;2563;52.242;7.956;2022-12-18T16:46:40;14.97;;;5.50;;
5121;SDS011;2563;52.242;7.956;2022-12-18T16:49:10;10.00;;;4.67;;
5121;SDS011;2563;52.242;7.956;2022-12-18T16:51:36;18.23;;;4.77;;
5121;SDS011;2563;52.242;7.956;2022-12-18T16:54:01;11.07;;;5.37;;
5121;SDS011;2563;52.242;7.956;2022-12-18T16:56:27;14.10;;;5.27;;
5121;SDS011;2563;52.242;7.956;2022-12-18T16:58:53;14.07;;;5.30;;
5121;SDS011;2563;52.242;7.956;2022-12-18T17:01:20;14.83;;;5.73;;
5121;SDS011;2563;52.242;7.956;2022-12-18T17:03:52;16.60;;;6.53;;
5121;SDS011;2563;52.242;7.956;2022-12-18T17:06:29;15.00;;;6.00;;
5121;SDS011;2563;52.242;7.956;2022-12-18T17:08:59;14.57;;;6.50;;
5121;SDS011;2563;52.242;7.956;2022-12-18T17:11:30;14.20;;;6.47;;
5121;SDS011;2563;52.242;7.956;2022-12-18T17:13:57;13.17;;;5.90;;
5121;SDS011;2563;52.242;7.956;2022-12-18T17:16:23;18.60;;;6.33;;
5121;SDS011;2563;52.242;7.956;2022-12-18T17:18:49;14.90;;;6.00;;
5121;SDS011;2563;52.242;7.956;2022-12-18T17:21:14;18.67;;;6.60;;
5121;SDS011;2563;52.242;7.956;2022-12-18T17:23:41;13.90;;;5.73;;
5121;SDS011;2563;52.242;7.956;2022-12-18T17:26:10;16.30;;;5.97;;